createdAt,value
2018-02-18T08:18:25.379Z,23.17988767135539
2018-02-18T08:18:27.754Z,23.22661701588886
2018-02-18T08:18:30.199Z,23.25222214645846
2018-02-18T08:59:58.153Z,23.20677304470191
2018-02-18T09:00:00.542Z,23.172846265375938
2018-02-18T09:00:02.950Z,23.188209333676877
2018-02-18T09:56:14.684Z,23.04162016371265
2018-02-18T09:56:17.125Z,23.03777940264008
2018-02-18T09:56:18.908Z,23.04802143253073
2018-02-18T10:14:06.918Z,23.362324290817288
2018-02-18T10:15:08.516Z,23.388569589270993
2018-02-18T10:16:10.090Z,23.41865567251234
2018-02-18T10:17:11.646Z,23.453222674169318
2018-02-18T10:18:13.216Z,23.46794566038334
2018-02-18T10:19:14.994Z,23.464104881139065
2018-02-18T10:20:17.269Z,23.490990339286874
2018-02-18T10:26:26.230Z,23.566
2018-02-18T10:27:27.884Z,23.575
2018-02-18T10:28:43.674Z,23.62
2018-02-18T10:29:45.340Z,23.63
2018-02-18T10:30:46.906Z,23.65
2018-02-18T10:31:48.498Z,23.67
2018-02-18T10:33:25.839Z,23.68
2018-02-18T10:34:47.817Z,23.71
2018-02-18T10:35:50.584Z,23.72
2018-02-18T10:36:52.924Z,23.70
2018-02-18T10:37:55.457Z,23.72
2018-02-18T10:38:57.772Z,23.74
2018-02-18T10:40:30.540Z,23.75
2018-02-18T10:41:33.927Z,23.76
2018-02-18T10:42:37.340Z,23.79
2018-02-18T10:43:40.820Z,23.80
2018-02-18T10:44:44.378Z,23.84
2018-02-18T10:45:47.850Z,23.80
2018-02-18T10:46:51.395Z,23.85
2018-02-18T10:47:55.050Z,23.85
2018-02-18T10:48:58.639Z,23.89
2018-02-18T10:50:02.254Z,23.90
2018-02-18T10:51:05.691Z,23.91
2018-02-18T10:52:09.142Z,23.92
2018-02-18T10:53:12.578Z,23.95
2018-02-18T10:54:16.651Z,23.99
2018-02-18T10:55:20.793Z,24.02
2018-02-18T10:56:24.203Z,24.01
2018-02-18T10:57:27.605Z,24.00
2018-02-18T10:58:31.026Z,24.01
2018-02-18T11:10:26.408Z,24.07
2018-02-18T11:11:29.495Z,24.09
2018-02-18T11:12:32.768Z,24.08
2018-02-18T11:13:36.001Z,24.04
2018-02-18T11:14:39.149Z,24.07
2018-02-18T11:15:42.353Z,24.04
2018-02-18T11:16:45.603Z,24.08
2018-02-18T11:17:54.189Z,24.07
2018-02-18T11:18:57.257Z,24.09
2018-02-18T11:20:00.388Z,24.09
2018-02-18T11:21:03.758Z,24.14
2018-02-18T11:22:06.775Z,24.17
2018-02-18T11:23:09.824Z,24.20
2018-02-18T11:24:12.874Z,24.20
2018-02-18T11:25:15.891Z,24.22
2018-02-18T11:26:19.632Z,24.20
2018-02-18T11:27:22.651Z,24.22
2018-02-18T11:28:25.705Z,24.21
2018-02-18T11:29:28.756Z,24.20
2018-02-18T11:30:31.794Z,24.19
2018-02-18T11:31:34.871Z,24.17
2018-02-18T11:32:37.962Z,24.17
2018-02-18T11:33:40.988Z,24.18
2018-02-18T11:34:43.994Z,24.03
2018-02-18T11:35:47.029Z,23.72
2018-02-18T11:36:50.069Z,23.42
2018-02-18T11:37:53.192Z,23.16
2018-02-18T11:38:56.223Z,22.96
2018-02-18T11:39:59.370Z,22.63
2018-02-18T11:41:02.446Z,22.55
2018-02-18T11:42:05.756Z,22.51
2018-02-18T11:43:09.595Z,22.42
2018-02-18T11:44:12.608Z,22.31
2018-02-18T11:45:15.627Z,22.22
2018-02-18T11:46:18.648Z,22.30
2018-02-18T11:47:21.701Z,22.43
2018-02-18T11:48:24.713Z,22.54
2018-02-18T11:49:27.730Z,22.67
2018-02-18T11:50:30.782Z,22.79
2018-02-18T11:51:33.793Z,22.92
2018-02-18T11:52:36.847Z,23.04
2018-02-18T11:53:39.928Z,23.14
2018-02-18T11:54:42.953Z,23.21
2018-02-18T11:55:45.994Z,23.36
2018-02-18T11:56:49.110Z,23.50
2018-02-18T11:57:52.287Z,23.58
2018-02-18T11:58:55.296Z,23.74
2018-02-18T11:59:58.305Z,23.80
2018-02-18T12:01:01.469Z,23.86
2018-02-18T12:02:05.063Z,23.98
2018-02-18T12:03:08.105Z,24.04
2018-02-18T12:04:11.126Z,24.13
2018-02-18T12:05:14.136Z,24.20
2018-02-18T12:06:17.173Z,24.28
2018-02-18T12:07:20.193Z,24.35
2018-02-18T12:08:23.262Z,24.43
2018-02-18T12:09:26.295Z,24.46
2018-02-18T12:10:30.347Z,24.55
2018-02-18T12:11:33.373Z,24.57
2018-02-18T12:12:36.587Z,24.64
2018-02-18T12:13:39.661Z,24.67
2018-02-18T12:14:42.678Z,24.74
2018-02-18T12:15:45.720Z,24.77
2018-02-18T12:16:48.777Z,24.82
2018-02-18T12:17:51.839Z,24.88
2018-02-18T12:18:55.014Z,24.93
2018-02-18T12:19:58.068Z,24.98
2018-02-18T12:21:01.218Z,25.03
2018-02-18T12:22:04.851Z,25.09
2018-02-18T12:23:07.999Z,25.13
2018-02-18T12:24:11.065Z,25.23
2018-02-18T12:25:14.268Z,25.26
2018-02-18T12:26:17.285Z,25.30
2018-02-18T12:27:20.309Z,25.32
2018-02-18T12:28:23.298Z,25.34
2018-02-18T12:29:26.356Z,25.37
2018-02-18T12:30:29.357Z,25.35
2018-02-18T12:31:32.490Z,25.36
2018-02-18T12:32:35.513Z,25.32
2018-02-18T12:33:38.512Z,25.28
2018-02-18T12:34:41.594Z,25.21
2018-02-18T12:35:44.604Z,25.25
2018-02-18T12:36:47.628Z,25.23
2018-02-18T12:37:50.660Z,25.20
2018-02-18T12:38:53.714Z,25.17
2018-02-18T12:39:56.771Z,25.12
2018-02-18T12:40:59.771Z,25.09
2018-02-18T12:42:02.836Z,25.13
2018-02-18T12:43:06.268Z,25.00
2018-02-18T12:44:09.299Z,24.75
2018-02-18T12:45:12.342Z,24.43
2018-02-18T12:46:15.351Z,24.30
2018-02-18T12:47:18.457Z,24.28
2018-02-18T12:48:21.857Z,24.28
2018-02-18T12:49:24.854Z,24.33
2018-02-18T12:50:27.900Z,24.31
2018-02-18T12:51:30.904Z,24.32
2018-02-18T12:52:33.892Z,24.30
2018-02-18T12:53:36.935Z,24.27
2018-02-18T12:54:39.950Z,24.26
2018-02-18T12:55:43.279Z,24.22
2018-02-18T12:56:46.321Z,24.20
2018-02-18T12:57:49.389Z,24.18
2018-02-18T12:58:52.411Z,24.14
2018-02-18T12:59:55.428Z,24.13
2018-02-18T13:00:58.456Z,24.09
2018-02-18T13:02:01.494Z,24.06
2018-02-18T13:03:04.830Z,24.04
2018-02-18T13:04:07.849Z,24.03
2018-02-18T13:05:10.861Z,24.00
2018-02-18T13:06:13.918Z,23.96
2018-02-18T13:07:16.992Z,23.93
2018-02-18T13:08:20.047Z,23.88
2018-02-18T13:09:23.084Z,23.83
2018-02-18T13:10:26.104Z,23.81
2018-02-18T13:11:29.505Z,23.80
2018-02-18T13:12:32.542Z,23.78
2018-02-18T13:13:35.573Z,23.78
2018-02-18T13:14:38.609Z,23.77
2018-02-18T13:15:41.621Z,23.76
2018-02-18T13:16:44.679Z,23.75
2018-02-18T13:17:48.369Z,23.74
2018-02-18T13:18:51.692Z,23.74
2018-02-18T13:19:54.793Z,23.70
2018-02-18T13:20:57.865Z,23.75
2018-02-18T13:22:01.267Z,23.77
2018-02-18T13:23:04.701Z,23.79
2018-02-18T13:24:07.746Z,23.81
2018-02-18T13:25:10.812Z,23.88
2018-02-18T13:26:14.170Z,23.93
2018-02-18T13:27:19.596Z,23.99
2018-02-18T13:28:22.623Z,24.05
2018-02-18T13:29:26.355Z,24.08
2018-02-18T13:30:29.380Z,24.16
2018-02-18T13:31:32.397Z,24.22
2018-02-18T13:32:35.525Z,24.26
2018-02-18T13:33:39.436Z,24.29
2018-02-18T13:34:43.773Z,24.29
2018-02-18T13:35:47.368Z,24.34
2018-02-18T13:36:50.820Z,24.35
2018-02-18T13:37:54.042Z,24.32
2018-02-18T13:38:57.925Z,24.32
2018-02-18T13:40:01.214Z,24.32
2018-02-18T13:41:05.492Z,24.34
2018-02-18T13:42:08.516Z,24.34
2018-02-18T13:43:11.663Z,24.32
2018-02-18T13:44:15.673Z,24.37
2018-02-18T13:45:19.102Z,24.35
2018-02-18T13:46:23.528Z,24.34
2018-02-18T13:47:26.576Z,24.35
2018-02-18T13:48:29.601Z,24.36
2018-02-18T13:49:32.642Z,24.33
2018-02-18T13:50:36.247Z,24.33
2018-02-18T13:51:39.271Z,24.35
2018-02-18T13:52:42.878Z,24.35
2018-02-18T13:53:49.193Z,24.33
2018-02-18T13:54:52.385Z,24.35
2018-02-18T13:55:57.575Z,24.38
2018-02-18T13:57:00.578Z,24.36
2018-02-18T13:58:06.872Z,24.36
2018-02-18T13:59:09.922Z,24.37
2018-02-18T14:00:13.137Z,24.39
2018-02-18T14:01:16.958Z,24.38
2018-02-18T14:02:19.969Z,24.34
2018-02-18T14:03:23.115Z,24.29
2018-02-18T14:04:27.721Z,24.25
2018-02-18T14:05:30.887Z,24.20
2018-02-18T14:06:34.736Z,24.18
2018-02-18T14:07:37.889Z,24.14
2018-02-18T14:08:41.401Z,24.14
2018-02-18T14:09:44.648Z,24.13
2018-02-18T14:10:49.585Z,24.11
2018-02-18T14:11:52.907Z,24.07
2018-02-18T14:12:55.984Z,24.05
2018-02-18T14:13:59.681Z,24.01
2018-02-18T14:15:03.036Z,23.95
2018-02-18T14:16:07.396Z,23.96
2018-02-18T14:17:12.727Z,23.94
2018-02-18T14:18:16.356Z,23.93
2018-02-18T14:19:19.400Z,23.91
2018-02-18T14:20:22.440Z,23.92
2018-02-18T14:21:25.636Z,23.92
2018-02-18T14:22:29.799Z,23.93
2018-02-18T14:23:32.906Z,23.90
2018-02-18T14:24:36.088Z,23.90
2018-02-18T14:25:39.129Z,23.92
2018-02-18T14:26:42.550Z,23.90
2018-02-18T14:27:48.305Z,23.89
2018-02-18T14:28:56.554Z,23.90
2018-02-18T14:29:59.805Z,23.92
2018-02-18T14:31:05.141Z,23.90
2018-02-18T14:32:08.205Z,23.86
2018-02-18T14:33:11.256Z,23.88
2018-02-18T14:34:14.725Z,23.90
2018-02-18T14:35:17.851Z,23.93
2018-02-18T14:36:20.920Z,23.97
2018-02-18T14:37:24.437Z,24.00
2018-02-18T14:38:27.540Z,24.03
2018-02-18T14:39:30.557Z,24.06
2018-02-18T14:40:35.077Z,24.05
2018-02-18T14:41:38.269Z,24.06
2018-02-18T14:42:41.325Z,24.09
2018-02-18T14:43:44.420Z,24.14
2018-02-18T14:44:47.441Z,24.19
2018-02-18T14:45:50.902Z,24.21
2018-02-18T14:46:56.126Z,24.22
2018-02-18T14:47:59.145Z,24.24
2018-02-18T14:49:02.263Z,24.27
2018-02-18T14:50:07.018Z,24.27
2018-02-18T14:51:10.025Z,24.22
2018-02-18T14:52:14.026Z,24.18
2018-02-18T14:53:18.470Z,24.18
2018-02-18T14:54:21.486Z,24.15
2018-02-18T14:55:24.529Z,24.14
2018-02-18T14:56:27.684Z,24.12
2018-02-18T14:57:30.837Z,24.12
2018-02-18T14:58:34.558Z,24.11
2018-02-18T14:59:37.687Z,24.10
2018-02-18T15:00:40.782Z,24.06
2018-02-18T15:01:43.921Z,24.04
2018-02-18T15:02:47.789Z,24.04
2018-02-18T15:03:53.420Z,24.00
2018-02-18T15:04:56.572Z,24.02
2018-02-18T15:05:59.598Z,24.04
2018-02-18T15:07:02.864Z,24.05
2018-02-18T15:08:06.628Z,24.09
2018-02-18T15:09:09.705Z,24.10
2018-02-18T15:10:13.032Z,24.13
2018-02-18T15:11:17.868Z,24.10
2018-02-18T15:12:23.337Z,24.13
2018-02-18T15:13:27.364Z,24.14
2018-02-18T15:14:32.489Z,24.18
2018-02-18T15:15:36.599Z,24.24
2018-02-18T15:16:39.635Z,24.21
2018-02-18T15:17:42.675Z,24.22
2018-02-18T15:18:46.549Z,24.20
2018-02-18T15:19:50.310Z,24.20
2018-02-18T15:20:53.681Z,24.18
2018-02-18T15:21:57.763Z,24.15
2018-02-18T15:23:00.836Z,24.09
2018-02-18T15:24:05.005Z,24.02
2018-02-18T15:25:08.034Z,23.99
2018-02-18T15:26:11.066Z,24.02
2018-02-18T15:27:15.590Z,24.05
2018-02-18T15:28:18.619Z,24.07
2018-02-18T15:29:21.674Z,24.08
2018-02-18T15:30:24.716Z,24.07
2018-02-18T15:31:27.789Z,24.06
2018-02-18T15:32:30.837Z,24.05
2018-02-18T15:33:34.695Z,24.03
2018-02-18T15:34:37.732Z,24.01
2018-02-18T15:35:40.754Z,23.96
2018-02-18T15:36:43.963Z,23.94
2018-02-18T15:37:47.132Z,23.91
2018-02-18T15:38:50.209Z,23.87
2018-02-18T15:39:53.583Z,23.84
2018-02-18T15:40:57.261Z,23.84
2018-02-18T15:42:00.451Z,23.80
2018-02-18T15:43:03.722Z,23.81
2018-02-18T15:44:07.075Z,23.80
2018-02-18T15:45:10.183Z,23.76
2018-02-18T15:46:13.204Z,23.74
2018-02-18T15:47:16.350Z,23.69
2018-02-18T15:48:19.386Z,23.69
2018-02-18T15:49:22.480Z,23.68
2018-02-18T15:50:26.029Z,23.65
2018-02-18T15:51:29.092Z,23.62
2018-02-18T15:52:32.204Z,23.60
2018-02-18T15:53:35.546Z,23.58
2018-02-18T15:54:38.637Z,23.54
2018-02-18T15:55:41.694Z,23.53
2018-02-18T15:56:45.496Z,23.51
2018-02-18T15:57:48.762Z,23.47
2018-02-18T15:58:53.877Z,23.46
2018-02-18T15:59:56.971Z,23.45
2018-02-18T16:00:59.998Z,23.46
2018-02-18T16:02:03.199Z,23.43
2018-02-18T16:03:07.591Z,23.44
2018-02-18T16:04:10.610Z,23.41
2018-02-18T16:05:13.813Z,23.40
2018-02-18T16:06:16.979Z,23.33
2018-02-18T16:07:20.031Z,23.33
2018-02-18T16:08:23.146Z,23.30
2018-02-18T16:09:26.165Z,23.30
2018-02-18T16:10:29.884Z,23.25
2018-02-18T16:11:33.068Z,23.26
2018-02-18T16:12:37.043Z,23.24
2018-02-18T16:13:40.065Z,23.21
2018-02-18T16:14:43.177Z,23.19
2018-02-18T16:15:46.626Z,23.16
2018-02-18T16:16:49.690Z,23.17
2018-02-18T16:17:52.873Z,23.20
2018-02-18T16:18:55.884Z,23.19
2018-02-18T16:19:58.918Z,23.19
2018-02-18T16:21:01.942Z,23.18
2018-02-18T16:22:06.689Z,23.16
2018-02-18T16:23:09.703Z,23.15
2018-02-18T16:24:12.750Z,23.13
2018-02-18T16:25:15.762Z,23.12
2018-02-18T16:26:19.226Z,23.07
2018-02-18T16:27:22.363Z,23.09
2018-02-18T16:28:25.928Z,23.08
2018-02-18T16:29:28.959Z,23.07
2018-02-18T16:30:31.966Z,23.07
2018-02-18T16:31:34.983Z,23.06
2018-02-18T16:32:38.064Z,23.04
2018-02-18T16:33:41.108Z,23.04
2018-02-18T16:34:44.821Z,23.04
2018-02-18T16:35:47.839Z,23.05
2018-02-18T16:36:50.956Z,23.03
2018-02-18T16:37:54.458Z,23.05
2018-02-18T16:38:57.781Z,23.03
2018-02-18T16:40:01.019Z,23.03
2018-02-18T16:41:04.394Z,23.03
2018-02-18T16:42:07.439Z,23.02
2018-02-18T16:43:12.996Z,23.01
2018-02-18T16:44:16.399Z,22.99
2018-02-18T16:45:19.465Z,23.00
2018-02-18T16:46:22.556Z,23.00
2018-02-18T16:47:26.911Z,22.99
2018-02-18T16:48:30.005Z,23.01
2018-02-18T16:49:33.338Z,22.97
2018-02-18T16:50:37.104Z,23.01
2018-02-18T16:51:40.131Z,23.00
2018-02-18T16:52:43.813Z,22.95
2018-02-18T16:53:48.243Z,22.99
2018-02-18T16:54:51.336Z,22.97
2018-02-18T16:55:55.791Z,22.97
2018-02-18T16:56:58.813Z,22.98
2018-02-18T16:58:01.844Z,22.97
2018-02-18T16:59:07.061Z,22.94
2018-02-18T23:33:26.923Z,24.04
2018-02-18T23:35:54.401Z,23.74
2018-02-18T23:48:27.506Z,23.57
2018-02-18T23:50:47.648Z,23.61
